Terminal Aerodrome Forecast
Issued by NWS

Home | Current Version | Previous Version | Text Only | Print | Product List | Glossary On
Versions: 1 2 3 4 5 6 7 8 9 10 11 12 13 14 15 16 17 18 19 20 21
000
FTUS46 KLOX 272339
TAFSBA
TAF
KSBA 272339Z 2800/2824 26010KT P6SM FEW020
     FM280300 VRB03KT P6SM SKC
     FM281200 10005KT 5SM BR BKN009
     FM281700 15006KT P6SM SCT010
     FM282000 25009KT P6SM SKC=

USA.gov is the U.S. government's official web portal to all federal, state and local government web resources and services.